sensor_id;sensor_type;location;lat;lon;timestamp;pressure;altitude;pressure_sealevel;temperature;humidity
33697;BME280;20031;43.416;23.232;2023-04-08T00:00:48;100273.97;;;6.64;69.74
33697;BME280;20031;43.416;23.232;2023-04-08T00:03:14;100261.84;;;6.65;69.89
33697;BME280;20031;43.416;23.232;2023-04-08T00:05:40;100272.75;;;6.68;70.14
33697;BME280;20031;43.416;23.232;2023-04-08T00:08:05;100272.19;;;6.65;69.73
33697;BME280;20031;43.416;23.232;2023-04-08T00:10:31;100273.72;;;6.67;69.83
33697;BME280;20031;43.416;23.232;2023-04-08T00:12:56;100269.63;;;6.65;69.55
33697;BME280;20031;43.416;23.232;2023-04-08T00:15:22;100281.59;;;6.66;70.32
33697;BME280;20031;43.416;23.232;2023-04-08T00:17:47;100280.78;;;6.65;70.07
33697;BME280;20031;43.416;23.232;2023-04-08T00:20:13;100270.56;;;6.64;69.76
33697;BME280;20031;43.416;23.232;2023-04-08T00:22:38;100270.69;;;6.62;70.16
33697;BME280;20031;43.416;23.232;2023-04-08T00:25:04;100270.69;;;6.62;69.88
33697;BME280;20031;43.416;23.232;2023-04-08T00:27:33;100268.81;;;6.64;70.45
33697;BME280;20031;43.416;23.232;2023-04-08T00:29:59;100271.53;;;6.63;70.49
33697;BME280;20031;43.416;23.232;2023-04-08T00:32:26;100261.53;;;6.58;71.06
33697;BME280;20031;43.416;23.232;2023-04-08T00:34:51;100262.19;;;6.51;71.30
33697;BME280;20031;43.416;23.232;2023-04-08T00:37:17;100247.13;;;6.36;72.13
33697;BME280;20031;43.416;23.232;2023-04-08T00:39:42;100248.13;;;6.24;72.73
33697;BME280;20031;43.416;23.232;2023-04-08T00:42:08;100246.69;;;6.10;73.03
33697;BME280;20031;43.416;23.232;2023-04-08T00:44:34;100263.28;;;6.08;73.63
33697;BME280;20031;43.416;23.232;2023-04-08T00:47:00;100263.78;;;6.02;73.97
33697;BME280;20031;43.416;23.232;2023-04-08T00:49:25;100271.41;;;6.04;74.10
33697;BME280;20031;43.416;23.232;2023-04-08T00:51:52;100288.22;;;5.98;73.93
33697;BME280;20031;43.416;23.232;2023-04-08T00:54:18;100270.94;;;5.99;74.29
33697;BME280;20031;43.416;23.232;2023-04-08T00:56:43;100274.38;;;5.99;74.54
33697;BME280;20031;43.416;23.232;2023-04-08T00:59:09;100276.00;;;6.00;74.78
33697;BME280;20031;43.416;23.232;2023-04-08T01:01:45;100283.63;;;6.02;74.88
33697;BME280;20031;43.416;23.232;2023-04-08T01:06:46;100280.59;;;5.97;75.39
33697;BME280;20031;43.416;23.232;2023-04-08T01:09:17;100283.06;;;5.98;75.01
33697;BME280;20031;43.416;23.232;2023-04-08T01:11:43;100285.41;;;6.01;74.99
33697;BME280;20031;43.416;23.232;2023-04-08T01:14:16;100279.16;;;6.04;75.50
33697;BME280;20031;43.416;23.232;2023-04-08T01:16:42;100285.03;;;6.06;75.27
33697;BME280;20031;43.416;23.232;2023-04-08T01:19:35;100284.09;;;6.07;75.34
33697;BME280;20031;43.416;23.232;2023-04-08T01:24:49;100279.03;;;6.05;75.27
33697;BME280;20031;43.416;23.232;2023-04-08T01:27:20;100280.91;;;6.03;75.40
33697;BME280;20031;43.416;23.232;2023-04-08T01:29:46;100279.63;;;5.98;75.43
33697;BME280;20031;43.416;23.232;2023-04-08T01:32:13;100277.56;;;5.92;75.23
33697;BME280;20031;43.416;23.232;2023-04-08T01:34:39;100276.06;;;5.89;75.36
33697;BME280;20031;43.416;23.232;2023-04-08T01:37:06;100281.44;;;5.86;75.41
33697;BME280;20031;43.416;23.232;2023-04-08T01:39:34;100285.13;;;5.84;75.18
33697;BME280;20031;43.416;23.232;2023-04-08T01:42:00;100284.28;;;5.83;75.39
33697;BME280;20031;43.416;23.232;2023-04-08T01:44:26;100281.81;;;5.82;75.35
33697;BME280;20031;43.416;23.232;2023-04-08T01:46:53;100281.94;;;5.80;74.88
33697;BME280;20031;43.416;23.232;2023-04-08T01:49:21;100287.13;;;5.80;74.95
33697;BME280;20031;43.416;23.232;2023-04-08T01:51:48;100289.94;;;5.77;75.15
33697;BME280;20031;43.416;23.232;2023-04-08T01:54:14;100295.38;;;5.74;75.28
33697;BME280;20031;43.416;23.232;2023-04-08T01:56:40;100294.44;;;5.75;75.02
33697;BME280;20031;43.416;23.232;2023-04-08T01:59:10;100296.88;;;5.77;75.13
33697;BME280;20031;43.416;23.232;2023-04-08T02:01:38;100297.00;;;5.75;74.84
33697;BME280;20031;43.416;23.232;2023-04-08T02:04:03;100301.34;;;5.75;75.23
33697;BME280;20031;43.416;23.232;2023-04-08T02:06:29;100309.81;;;5.77;75.67
33697;BME280;20031;43.416;23.232;2023-04-08T02:08:56;100311.44;;;5.78;75.42
33697;BME280;20031;43.416;23.232;2023-04-08T02:11:21;100310.88;;;5.74;75.23
33697;BME280;20031;43.416;23.232;2023-04-08T02:13:47;100311.88;;;5.72;75.14
33697;BME280;20031;43.416;23.232;2023-04-08T02:16:33;100317.31;;;5.69;75.43
33697;BME280;20031;43.416;23.232;2023-04-08T02:19:28;100312.50;;;5.64;75.65
33697;BME280;20031;43.416;23.232;2023-04-08T02:22:07;100316.00;;;5.63;75.62
33697;BME280;20031;43.416;23.232;2023-04-08T02:24:37;100320.50;;;5.61;75.60
33697;BME280;20031;43.416;23.232;2023-04-08T02:27:05;100312.06;;;5.59;75.94
33697;BME280;20031;43.416;23.232;2023-04-08T02:29:33;100312.28;;;5.56;75.76
33697;BME280;20031;43.416;23.232;2023-04-08T02:32:02;100320.38;;;5.52;76.13
33697;BME280;20031;43.416;23.232;2023-04-08T02:34:29;100317.94;;;5.51;76.07
33697;BME280;20031;43.416;23.232;2023-04-08T02:36:55;100312.56;;;5.43;75.72
33697;BME280;20031;43.416;23.232;2023-04-08T02:39:20;100319.94;;;5.36;76.18
33697;BME280;20031;43.416;23.232;2023-04-08T02:41:46;100318.41;;;5.34;76.37
33697;BME280;20031;43.416;23.232;2023-04-08T02:44:11;100324.53;;;5.33;76.61
33697;BME280;20031;43.416;23.232;2023-04-08T02:46:36;100322.91;;;5.32;76.75
33697;BME280;20031;43.416;23.232;2023-04-08T02:49:02;100323.25;;;5.27;76.79
33697;BME280;20031;43.416;23.232;2023-04-08T02:51:27;100325.97;;;5.26;77.04
33697;BME280;20031;43.416;23.232;2023-04-08T02:53:53;100327.13;;;5.22;77.13
33697;BME280;20031;43.416;23.232;2023-04-08T02:56:19;100327.13;;;5.22;77.42
33697;BME280;20031;43.416;23.232;2023-04-08T02:58:45;100333.81;;;5.24;77.47
33697;BME280;20031;43.416;23.232;2023-04-08T03:01:11;100327.69;;;5.25;77.71
33697;BME280;20031;43.416;23.232;2023-04-08T03:03:36;100329.47;;;5.25;77.62
33697;BME280;20031;43.416;23.232;2023-04-08T03:06:02;100329.84;;;5.31;77.87
33697;BME280;20031;43.416;23.232;2023-04-08T03:08:27;100331.44;;;5.32;77.60
33697;BME280;20031;43.416;23.232;2023-04-08T03:10:53;100326.16;;;5.34;77.50
33697;BME280;20031;43.416;23.232;2023-04-08T03:13:18;100330.28;;;5.36;77.51
33697;BME280;20031;43.416;23.232;2023-04-08T03:15:44;100341.22;;;5.40;77.65
33697;BME280;20031;43.416;23.232;2023-04-08T03:18:09;100334.16;;;5.42;77.64
33697;BME280;20031;43.416;23.232;2023-04-08T03:20:35;100332.25;;;5.44;77.73
33697;BME280;20031;43.416;23.232;2023-04-08T03:23:00;100329.44;;;5.47;77.97
33697;BME280;20031;43.416;23.232;2023-04-08T03:25:26;100329.09;;;5.51;78.14
33697;BME280;20031;43.416;23.232;2023-04-08T03:27:53;100327.31;;;5.52;77.93
33697;BME280;20031;43.416;23.232;2023-04-08T03:30:19;100331.56;;;5.53;77.78
33697;BME280;20031;43.416;23.232;2023-04-08T03:32:44;100332.38;;;5.53;78.18
33697;BME280;20031;43.416;23.232;2023-04-08T03:35:10;100328.13;;;5.52;78.07
33697;BME280;20031;43.416;23.232;2023-04-08T03:37:35;100324.50;;;5.55;77.95
33697;BME280;20031;43.416;23.232;2023-04-08T03:40:01;100327.19;;;5.53;77.82
33697;BME280;20031;43.416;23.232;2023-04-08T03:42:26;100323.09;;;5.51;78.39
33697;BME280;20031;43.416;23.232;2023-04-08T03:44:52;100317.81;;;5.52;78.38
33697;BME280;20031;43.416;23.232;2023-04-08T03:47:17;100317.81;;;5.52;78.45
33697;BME280;20031;43.416;23.232;2023-04-08T03:49:42;100319.47;;;5.53;78.27
33697;BME280;20031;43.416;23.232;2023-04-08T03:52:08;100318.41;;;5.56;78.61
33697;BME280;20031;43.416;23.232;2023-04-08T03:54:33;100324.50;;;5.55;78.60
33697;BME280;20031;43.416;23.232;2023-04-08T03:56:59;100322.72;;;5.55;78.38
33697;BME280;20031;43.416;23.232;2023-04-08T03:59:24;100329.66;;;5.55;78.62
33697;BME280;20031;43.416;23.232;2023-04-08T04:01:50;100328.63;;;5.57;78.94
33697;BME280;20031;43.416;23.232;2023-04-08T04:04:16;100327.78;;;5.56;78.55
33697;BME280;20031;43.416;23.232;2023-04-08T04:06:41;100327.56;;;5.59;79.15
33697;BME280;20031;43.416;23.232;2023-04-08T04:09:07;100329.19;;;5.60;78.79
33697;BME280;20031;43.416;23.232;2023-04-08T04:11:36;100332.94;;;5.56;78.41
33697;BME280;20031;43.416;23.232;2023-04-08T04:14:01;100328.75;;;5.45;78.45
33697;BME280;20031;43.416;23.232;2023-04-08T04:16:27;100332.97;;;5.46;78.73
33697;BME280;20031;43.416;23.232;2023-04-08T04:18:52;100334.59;;;5.47;79.00
33697;BME280;20031;43.416;23.232;2023-04-08T04:21:18;100341.88;;;5.53;79.04
33697;BME280;20031;43.416;23.232;2023-04-08T04:23:43;100337.41;;;5.55;78.71
33697;BME280;20031;43.416;23.232;2023-04-08T04:26:10;100341.41;;;5.58;79.18
33697;BME280;20031;43.416;23.232;2023-04-08T04:28:36;100341.16;;;5.61;78.75
33697;BME280;20031;43.416;23.232;2023-04-08T04:31:02;100341.72;;;5.65;78.94
33697;BME280;20031;43.416;23.232;2023-04-08T04:33:27;100344.19;;;5.66;78.75
33697;BME280;20031;43.416;23.232;2023-04-08T04:35:53;100340.78;;;5.66;78.63
33697;BME280;20031;43.416;23.232;2023-04-08T04:38:18;100344.19;;;5.66;78.66
33697;BME280;20031;43.416;23.232;2023-04-08T04:40:43;100349.72;;;5.73;78.50
33697;BME280;20031;43.416;23.232;2023-04-08T04:43:09;100343.97;;;5.80;78.71
33697;BME280;20031;43.416;23.232;2023-04-08T04:45:35;100357.09;;;5.88;78.67
33697;BME280;20031;43.416;23.232;2023-04-08T04:48:00;100354.72;;;5.96;78.62
33697;BME280;20031;43.416;23.232;2023-04-08T04:50:26;100354.00;;;6.05;78.33
33697;BME280;20031;43.416;23.232;2023-04-08T04:52:51;100352.56;;;6.12;78.40
33697;BME280;20031;43.416;23.232;2023-04-08T04:55:17;100353.72;;;6.19;78.26
33697;BME280;20031;43.416;23.232;2023-04-08T04:57:42;100363.81;;;6.22;77.74
33697;BME280;20031;43.416;23.232;2023-04-08T05:00:09;100363.44;;;6.26;78.03
33697;BME280;20031;43.416;23.232;2023-04-08T05:02:34;100361.88;;;6.35;77.59
33697;BME280;20031;43.416;23.232;2023-04-08T05:05:00;100368.53;;;6.37;77.43
33697;BME280;20031;43.416;23.232;2023-04-08T05:07:25;100365.13;;;6.37;77.77
33697;BME280;20031;43.416;23.232;2023-04-08T05:09:51;100371.00;;;6.39;77.22
33697;BME280;20031;43.416;23.232;2023-04-08T05:12:16;100368.88;;;6.44;77.43
33697;BME280;20031;43.416;23.232;2023-04-08T05:14:42;100366.72;;;6.49;77.54
33697;BME280;20031;43.416;23.232;2023-04-08T05:17:07;100362.94;;;6.53;77.22
33697;BME280;20031;43.416;23.232;2023-04-08T05:19:33;100357.50;;;6.56;77.05
33697;BME280;20031;43.416;23.232;2023-04-08T05:21:58;100357.25;;;6.58;77.00
33697;BME280;20031;43.416;23.232;2023-04-08T05:24:24;100362.63;;;6.66;76.94
33697;BME280;20031;43.416;23.232;2023-04-08T05:26:49;100358.22;;;6.78;76.57
33697;BME280;20031;43.416;23.232;2023-04-08T05:29:17;100361.00;;;6.86;76.30
33697;BME280;20031;43.416;23.232;2023-04-08T05:31:44;100347.34;;;6.84;76.17
33697;BME280;20031;43.416;23.232;2023-04-08T05:34:09;100358.69;;;6.92;75.72
33697;BME280;20031;43.416;23.232;2023-04-08T05:36:35;100359.81;;;6.99;75.07
33697;BME280;20031;43.416;23.232;2023-04-08T05:39:01;100360.31;;;7.13;75.33
33697;BME280;20031;43.416;23.232;2023-04-08T05:41:26;100367.19;;;7.24;74.88
33697;BME280;20031;43.416;23.232;2023-04-08T05:43:52;100363.69;;;7.34;74.63
33697;BME280;20031;43.416;23.232;2023-04-08T05:46:17;100365.06;;;7.48;74.17
33697;BME280;20031;43.416;23.232;2023-04-08T05:48:43;100364.16;;;7.58;73.85
33697;BME280;20031;43.416;23.232;2023-04-08T05:51:15;100361.72;;;7.57;73.39
33697;BME280;20031;43.416;23.232;2023-04-08T05:53:42;100365.25;;;7.56;72.97
33697;BME280;20031;43.416;23.232;2023-04-08T05:56:09;100365.13;;;7.57;72.82
33697;BME280;20031;43.416;23.232;2023-04-08T05:58:34;100368.94;;;7.62;72.87
33697;BME280;20031;43.416;23.232;2023-04-08T06:00:59;100365.69;;;7.70;72.42
33697;BME280;20031;43.416;23.232;2023-04-08T06:03:25;100367.88;;;7.74;72.06
33697;BME280;20031;43.416;23.232;2023-04-08T06:05:50;100367.34;;;7.80;71.93
33697;BME280;20031;43.416;23.232;2023-04-08T06:08:16;100367.63;;;7.77;71.81
33697;BME280;20031;43.416;23.232;2023-04-08T06:10:48;100363.81;;;7.81;71.91
33697;BME280;20031;43.416;23.232;2023-04-08T06:13:14;100359.88;;;7.87;72.13
33697;BME280;20031;43.416;23.232;2023-04-08T06:15:40;100367.38;;;7.90;71.78
33697;BME280;20031;43.416;23.232;2023-04-08T06:18:05;100358.09;;;7.97;71.40
33697;BME280;20031;43.416;23.232;2023-04-08T06:20:31;100366.31;;;8.11;72.12
33697;BME280;20031;43.416;23.232;2023-04-08T06:22:56;100365.53;;;8.39;71.74
33697;BME280;20031;43.416;23.232;2023-04-08T06:25:21;100373.56;;;8.73;71.70
33697;BME280;20031;43.416;23.232;2023-04-08T06:27:48;100367.88;;;9.06;71.09
33697;BME280;20031;43.416;23.232;2023-04-08T06:30:13;100372.44;;;9.31;69.44
33697;BME280;20031;43.416;23.232;2023-04-08T06:32:38;100379.47;;;9.21;68.35
33697;BME280;20031;43.416;23.232;2023-04-08T06:35:04;100379.09;;;9.07;68.04
33697;BME280;20031;43.416;23.232;2023-04-08T06:37:30;100367.38;;;8.93;68.06
33697;BME280;20031;43.416;23.232;2023-04-08T06:39:56;100370.09;;;8.92;68.27
33697;BME280;20031;43.416;23.232;2023-04-08T06:42:21;100369.00;;;8.94;68.77
33697;BME280;20031;43.416;23.232;2023-04-08T06:44:47;100366.13;;;8.97;68.64
33697;BME280;20031;43.416;23.232;2023-04-08T06:47:12;100373.91;;;9.07;68.38
33697;BME280;20031;43.416;23.232;2023-04-08T06:49:38;100376.06;;;9.11;68.02
33697;BME280;20031;43.416;23.232;2023-04-08T06:52:03;100375.78;;;9.23;67.93
33697;BME280;20031;43.416;23.232;2023-04-08T06:54:30;100376.34;;;9.44;67.79
33697;BME280;20031;43.416;23.232;2023-04-08T06:56:56;100378.09;;;9.80;67.41
33697;BME280;20031;43.416;23.232;2023-04-08T06:59:21;100373.13;;;10.13;66.47
33697;BME280;20031;43.416;23.232;2023-04-08T07:01:47;100368.22;;;10.27;65.11
33697;BME280;20031;43.416;23.232;2023-04-08T07:04:12;100371.72;;;10.36;64.26
33697;BME280;20031;43.416;23.232;2023-04-08T07:06:37;100366.06;;;10.40;63.94
33697;BME280;20031;43.416;23.232;2023-04-08T07:09:03;100375.19;;;10.62;63.55
33697;BME280;20031;43.416;23.232;2023-04-08T07:11:29;100369.47;;;10.83;63.07
33697;BME280;20031;43.416;23.232;2023-04-08T07:13:54;100367.44;;;11.20;62.28
33697;BME280;20031;43.416;23.232;2023-04-08T07:16:20;100368.84;;;11.40;60.97
33697;BME280;20031;43.416;23.232;2023-04-08T07:18:45;100366.53;;;11.37;60.00
33697;BME280;20031;43.416;23.232;2023-04-08T07:21:11;100369.19;;;11.45;59.80
33697;BME280;20031;43.416;23.232;2023-04-08T07:23:37;100374.16;;;11.56;59.19
33697;BME280;20031;43.416;23.232;2023-04-08T07:26:02;100375.16;;;11.63;58.84
33697;BME280;20031;43.416;23.232;2023-04-08T07:28:29;100373.88;;;11.59;57.62
33697;BME280;20031;43.416;23.232;2023-04-08T07:30:55;100372.88;;;11.60;57.68
33697;BME280;20031;43.416;23.232;2023-04-08T07:33:21;100378.50;;;11.80;57.87
33697;BME280;20031;43.416;23.232;2023-04-08T07:35:47;100376.22;;;11.85;56.27
33697;BME280;20031;43.416;23.232;2023-04-08T07:38:13;100376.22;;;11.85;56.11
33697;BME280;20031;43.416;23.232;2023-04-08T07:40:38;100383.91;;;11.87;55.68
33697;BME280;20031;43.416;23.232;2023-04-08T07:43:04;100370.34;;;11.83;55.78
33697;BME280;20031;43.416;23.232;2023-04-08T07:45:29;100386.06;;;11.91;55.35
33697;BME280;20031;43.416;23.232;2023-04-08T07:47:55;100381.16;;;11.88;55.42
33697;BME280;20031;43.416;23.232;2023-04-08T07:50:20;100387.34;;;11.87;55.01
33697;BME280;20031;43.416;23.232;2023-04-08T07:52:46;100389.66;;;11.98;56.18
33697;BME280;20031;43.416;23.232;2023-04-08T07:55:12;100392.31;;;12.14;55.04
33697;BME280;20031;43.416;23.232;2023-04-08T07:57:37;100395.75;;;12.30;55.17
33697;BME280;20031;43.416;23.232;2023-04-08T08:00:03;100395.78;;;12.38;54.22
33697;BME280;20031;43.416;23.232;2023-04-08T08:02:29;100396.91;;;12.52;54.10
33697;BME280;20031;43.416;23.232;2023-04-08T08:04:54;100402.66;;;12.79;54.56
33697;BME280;20031;43.416;23.232;2023-04-08T08:07:20;100402.50;;;12.96;53.30
33697;BME280;20031;43.416;23.232;2023-04-08T08:09:45;100398.91;;;13.05;52.53
33697;BME280;20031;43.416;23.232;2023-04-08T08:12:10;100407.06;;;13.02;52.52
33697;BME280;20031;43.416;23.232;2023-04-08T08:14:37;100408.06;;;12.93;52.37
33697;BME280;20031;43.416;23.232;2023-04-08T08:17:03;100405.28;;;12.87;52.61
33697;BME280;20031;43.416;23.232;2023-04-08T08:19:28;100402.19;;;12.68;51.96
33697;BME280;20031;43.416;23.232;2023-04-08T08:21:53;100405.44;;;12.70;52.67
33697;BME280;20031;43.416;23.232;2023-04-08T08:24:20;100404.78;;;12.60;52.62
33697;BME280;20031;43.416;23.232;2023-04-08T08:26:45;100412.63;;;12.60;52.50
33697;BME280;20031;43.416;23.232;2023-04-08T08:29:13;100412.59;;;12.52;52.50
33697;BME280;20031;43.416;23.232;2023-04-08T08:31:38;100409.34;;;12.58;53.05
33697;BME280;20031;43.416;23.232;2023-04-08T08:34:04;100412.13;;;12.72;52.96
33697;BME280;20031;43.416;23.232;2023-04-08T08:36:30;100415.22;;;12.75;52.25
33697;BME280;20031;43.416;23.232;2023-04-08T08:38:55;100407.25;;;12.85;52.84
33697;BME280;20031;43.416;23.232;2023-04-08T08:41:20;100416.72;;;12.94;51.74
33697;BME280;20031;43.416;23.232;2023-04-08T08:43:46;100409.69;;;12.94;51.88
33697;BME280;20031;43.416;23.232;2023-04-08T08:46:15;100417.84;;;13.07;52.20
33697;BME280;20031;43.416;23.232;2023-04-08T08:48:40;100409.06;;;13.00;50.97
33697;BME280;20031;43.416;23.232;2023-04-08T08:51:10;100411.50;;;13.02;51.65
33697;BME280;20031;43.416;23.232;2023-04-08T08:53:36;100406.25;;;13.18;51.62
33697;BME280;20031;43.416;23.232;2023-04-08T08:56:02;100405.72;;;13.30;51.37
33697;BME280;20031;43.416;23.232;2023-04-08T08:58:28;100408.47;;;13.44;51.64
33697;BME280;20031;43.416;23.232;2023-04-08T09:00:53;100403.03;;;13.54;50.79
33697;BME280;20031;43.416;23.232;2023-04-08T09:03:20;100411.03;;;13.52;50.84
33697;BME280;20031;43.416;23.232;2023-04-08T09:05:58;100411.31;;;13.19;50.11
33697;BME280;20031;43.416;23.232;2023-04-08T09:08:30;100411.81;;;13.15;50.48
33697;BME280;20031;43.416;23.232;2023-04-08T09:13:38;100411.94;;;13.21;50.76
33697;BME280;20031;43.416;23.232;2023-04-08T09:16:10;100410.00;;;13.23;50.35
33697;BME280;20031;43.416;23.232;2023-04-08T09:18:39;100413.41;;;13.16;50.26
33697;BME280;20031;43.416;23.232;2023-04-08T09:21:07;100416.69;;;13.18;50.71
33697;BME280;20031;43.416;23.232;2023-04-08T09:23:51;100409.16;;;13.23;50.56
33697;BME280;20031;43.416;23.232;2023-04-08T09:26:18;100408.34;;;13.30;50.21
33697;BME280;20031;43.416;23.232;2023-04-08T09:29:02;100410.41;;;13.42;49.81
33697;BME280;20031;43.416;23.232;2023-04-08T09:31:29;100410.91;;;13.46;49.78
33697;BME280;20031;43.416;23.232;2023-04-08T09:34:00;100412.97;;;13.58;50.08
33697;BME280;20031;43.416;23.232;2023-04-08T09:36:28;100414.66;;;13.51;49.84
33697;BME280;20031;43.416;23.232;2023-04-08T09:38:54;100416.81;;;13.40;49.84
33697;BME280;20031;43.416;23.232;2023-04-08T09:41:21;100412.56;;;13.39;50.26
33697;BME280;20031;43.416;23.232;2023-04-08T09:43:50;100414.56;;;13.29;50.22
33697;BME280;20031;43.416;23.232;2023-04-08T09:46:35;100417.50;;;13.26;50.60
33697;BME280;20031;43.416;23.232;2023-04-08T09:51:53;100411.91;;;13.37;50.83
33697;BME280;20031;43.416;23.232;2023-04-08T09:54:31;100411.72;;;13.38;50.09
33697;BME280;20031;43.416;23.232;2023-04-08T09:57:04;100411.25;;;13.43;50.73
33697;BME280;20031;43.416;23.232;2023-04-08T09:59:33;100407.28;;;13.63;50.46
33697;BME280;20031;43.416;23.232;2023-04-08T10:02:05;100405.38;;;13.87;50.49
33697;BME280;20031;43.416;23.232;2023-04-08T10:04:34;100403.75;;;14.16;49.54
33697;BME280;20031;43.416;23.232;2023-04-08T10:07:03;100404.34;;;14.26;49.05
33697;BME280;20031;43.416;23.232;2023-04-08T10:09:30;100407.47;;;14.29;48.44
33697;BME280;20031;43.416;23.232;2023-04-08T10:11:57;100399.41;;;14.31;48.03
33697;BME280;20031;43.416;23.232;2023-04-08T10:14:22;100402.66;;;14.33;47.63
33697;BME280;20031;43.416;23.232;2023-04-08T10:16:48;100393.38;;;14.30;47.56
33697;BME280;20031;43.416;23.232;2023-04-08T10:19:36;100393.75;;;14.20;47.21
33697;BME280;20031;43.416;23.232;2023-04-08T10:22:47;100387.88;;;14.18;47.02
33697;BME280;20031;43.416;23.232;2023-04-08T10:25:30;100389.75;;;14.01;46.75
33697;BME280;20031;43.416;23.232;2023-04-08T10:27:56;100382.25;;;13.90;47.57
33697;BME280;20031;43.416;23.232;2023-04-08T10:32:51;100388.75;;;14.02;47.35
33697;BME280;20031;43.416;23.232;2023-04-08T10:35:16;100387.81;;;13.95;48.10
33697;BME280;20031;43.416;23.232;2023-04-08T10:37:42;100389.06;;;13.99;48.50
33697;BME280;20031;43.416;23.232;2023-04-08T10:40:20;100388.09;;;14.00;48.57
33697;BME280;20031;43.416;23.232;2023-04-08T10:42:45;100376.66;;;14.01;48.08
33697;BME280;20031;43.416;23.232;2023-04-08T10:45:15;100373.06;;;14.02;48.53
33697;BME280;20031;43.416;23.232;2023-04-08T10:47:42;100375.66;;;14.02;48.60
33697;BME280;20031;43.416;23.232;2023-04-08T10:50:18;100374.28;;;14.22;48.32
33697;BME280;20031;43.416;23.232;2023-04-08T10:52:52;100376.94;;;14.14;48.22
33697;BME280;20031;43.416;23.232;2023-04-08T10:55:24;100371.41;;;14.01;48.52
33697;BME280;20031;43.416;23.232;2023-04-08T10:57:51;100379.03;;;14.19;48.81
33697;BME280;20031;43.416;23.232;2023-04-08T11:00:17;100381.06;;;14.31;48.45
33697;BME280;20031;43.416;23.232;2023-04-08T11:02:43;100374.38;;;14.51;48.15
33697;BME280;20031;43.416;23.232;2023-04-08T11:05:11;100372.78;;;14.64;47.83
33697;BME280;20031;43.416;23.232;2023-04-08T11:07:40;100370.50;;;14.83;47.76
33697;BME280;20031;43.416;23.232;2023-04-08T11:10:09;100373.75;;;14.85;47.30
33697;BME280;20031;43.416;23.232;2023-04-08T11:12:35;100369.41;;;14.78;47.66
33697;BME280;20031;43.416;23.232;2023-04-08T11:15:03;100367.00;;;14.69;47.98
33697;BME280;20031;43.416;23.232;2023-04-08T11:17:29;100361.91;;;14.53;48.68
33697;BME280;20031;43.416;23.232;2023-04-08T11:19:55;100349.81;;;14.52;49.03
33697;BME280;20031;43.416;23.232;2023-04-08T11:22:27;100359.44;;;14.74;49.01
33697;BME280;20031;43.416;23.232;2023-04-08T11:24:53;100351.53;;;14.81;49.24
33697;BME280;20031;43.416;23.232;2023-04-08T11:27:20;100352.53;;;14.95;49.23
33697;BME280;20031;43.416;23.232;2023-04-08T11:29:50;100347.44;;;15.30;48.62
33697;BME280;20031;43.416;23.232;2023-04-08T11:32:16;100352.06;;;15.78;48.00
33697;BME280;20031;43.416;23.232;2023-04-08T11:34:41;100348.19;;;16.23;46.79
33697;BME280;20031;43.416;23.232;2023-04-08T11:37:07;100341.72;;;16.46;45.75
33697;BME280;20031;43.416;23.232;2023-04-08T11:39:33;100336.28;;;16.27;45.04
33697;BME280;20031;43.416;23.232;2023-04-08T11:41:58;100335.19;;;16.22;45.13
33697;BME280;20031;43.416;23.232;2023-04-08T11:44:30;100341.34;;;16.29;44.84
33697;BME280;20031;43.416;23.232;2023-04-08T11:46:57;100333.50;;;16.14;45.01
33697;BME280;20031;43.416;23.232;2023-04-08T11:49:23;100328.38;;;16.06;45.14
33697;BME280;20031;43.416;23.232;2023-04-08T11:51:56;100322.59;;;16.17;44.93
33697;BME280;20031;43.416;23.232;2023-04-08T11:54:26;100330.47;;;16.17;44.61
33697;BME280;20031;43.416;23.232;2023-04-08T11:56:52;100317.03;;;16.06;44.24
33697;BME280;20031;43.416;23.232;2023-04-08T11:59:17;100320.31;;;16.08;44.44
33697;BME280;20031;43.416;23.232;2023-04-08T12:01:43;100314.09;;;16.15;43.96
33697;BME280;20031;43.416;23.232;2023-04-08T12:04:09;100317.25;;;16.25;43.80
33697;BME280;20031;43.416;23.232;2023-04-08T12:06:35;100316.66;;;16.09;43.32
33697;BME280;20031;43.416;23.232;2023-04-08T12:09:00;100315.38;;;16.19;44.20
33697;BME280;20031;43.416;23.232;2023-04-08T12:11:26;100316.19;;;16.40;43.78
33697;BME280;20031;43.416;23.232;2023-04-08T12:13:51;100307.13;;;16.43;43.45
33697;BME280;20031;43.416;23.232;2023-04-08T12:16:17;100312.22;;;16.51;43.74
33697;BME280;20031;43.416;23.232;2023-04-08T12:18:43;100299.09;;;16.51;42.91
33697;BME280;20031;43.416;23.232;2023-04-08T12:21:09;100310.69;;;16.35;43.18
33697;BME280;20031;43.416;23.232;2023-04-08T12:23:34;100302.75;;;16.29;43.35
33697;BME280;20031;43.416;23.232;2023-04-08T12:26:00;100300.88;;;16.09;42.58
33697;BME280;20031;43.416;23.232;2023-04-08T12:28:25;100300.38;;;15.99;43.03
33697;BME280;20031;43.416;23.232;2023-04-08T12:30:51;100296.00;;;15.85;43.84
33697;BME280;20031;43.416;23.232;2023-04-08T12:33:16;100300.44;;;15.84;44.12
33697;BME280;20031;43.416;23.232;2023-04-08T12:35:42;100301.19;;;15.79;43.95
33697;BME280;20031;43.416;23.232;2023-04-08T12:38:07;100299.84;;;15.68;44.21
33697;BME280;20031;43.416;23.232;2023-04-08T12:40:33;100297.78;;;15.64;44.60
33697;BME280;20031;43.416;23.232;2023-04-08T12:42:58;100294.00;;;15.52;45.34
33697;BME280;20031;43.416;23.232;2023-04-08T12:45:23;100290.78;;;15.35;45.16
33697;BME280;20031;43.416;23.232;2023-04-08T12:47:49;100299.28;;;15.23;46.19
33697;BME280;20031;43.416;23.232;2023-04-08T12:50:15;100294.09;;;15.01;46.23
33697;BME280;20031;43.416;23.232;2023-04-08T12:52:41;100293.16;;;14.79;47.23
33697;BME280;20031;43.416;23.232;2023-04-08T12:55:07;100291.78;;;14.55;47.73
33697;BME280;20031;43.416;23.232;2023-04-08T12:57:32;100292.03;;;14.45;49.12